sensor_id;sensor_type;location;lat;lon;timestamp;temperature;humidity
24676;DHT22;12799;53.690;10.114;2022-07-24T00:00:37;13.60;99.90
24676;DHT22;12799;53.690;10.114;2022-07-24T00:02:39;13.60;99.90
24676;DHT22;12799;53.690;10.114;2022-07-24T00:04:41;13.60;99.90
24676;DHT22;12799;53.690;10.114;2022-07-24T00:06:43;13.60;99.90
24676;DHT22;12799;53.690;10.114;2022-07-24T00:08:45;13.50;99.90
24676;DHT22;12799;53.690;10.114;2022-07-24T00:10:49;13.50;99.90
24676;DHT22;12799;53.690;10.114;2022-07-24T00:12:51;13.50;99.90
24676;DHT22;12799;53.690;10.114;2022-07-24T00:14:53;13.50;99.90
24676;DHT22;12799;53.690;10.114;2022-07-24T00:16:55;13.40;99.90
24676;DHT22;12799;53.690;10.114;2022-07-24T00:18:57;13.40;99.90
24676;DHT22;12799;53.690;10.114;2022-07-24T00:20:59;13.40;99.90
24676;DHT22;12799;53.690;10.114;2022-07-24T00:23:01;13.40;99.90
24676;DHT22;12799;53.690;10.114;2022-07-24T00:25:04;13.30;99.90
24676;DHT22;12799;53.690;10.114;2022-07-24T00:27:08;13.30;99.90
24676;DHT22;12799;53.690;10.114;2022-07-24T00:29:10;13.30;99.90
24676;DHT22;12799;53.690;10.114;2022-07-24T00:31:12;13.20;99.90
24676;DHT22;12799;53.690;10.114;2022-07-24T00:33:16;13.30;99.90
24676;DHT22;12799;53.690;10.114;2022-07-24T00:35:18;13.20;99.90
24676;DHT22;12799;53.690;10.114;2022-07-24T00:37:20;13.20;99.90
24676;DHT22;12799;53.690;10.114;2022-07-24T00:39:22;13.20;99.90
24676;DHT22;12799;53.690;10.114;2022-07-24T00:41:24;13.10;99.90
24676;DHT22;12799;53.690;10.114;2022-07-24T00:43:27;13.10;99.90
24676;DHT22;12799;53.690;10.114;2022-07-24T00:45:29;13.10;99.90
24676;DHT22;12799;53.690;10.114;2022-07-24T00:47:31;13.10;99.90
24676;DHT22;12799;53.690;10.114;2022-07-24T00:49:33;13.10;99.90
24676;DHT22;12799;53.690;10.114;2022-07-24T00:51:35;13.10;99.90
24676;DHT22;12799;53.690;10.114;2022-07-24T00:53:37;13.00;99.90
24676;DHT22;12799;53.690;10.114;2022-07-24T00:55:40;13.00;99.90
24676;DHT22;12799;53.690;10.114;2022-07-24T00:57:43;13.00;99.90
24676;DHT22;12799;53.690;10.114;2022-07-24T00:59:48;13.00;99.90
24676;DHT22;12799;53.690;10.114;2022-07-24T01:01:51;12.90;99.90
24676;DHT22;12799;53.690;10.114;2022-07-24T01:03:53;12.90;99.90
24676;DHT22;12799;53.690;10.114;2022-07-24T01:05:55;12.90;99.90
24676;DHT22;12799;53.690;10.114;2022-07-24T01:07:57;12.90;99.90
24676;DHT22;12799;53.690;10.114;2022-07-24T01:09:59;12.90;99.90
24676;DHT22;12799;53.690;10.114;2022-07-24T01:12:03;12.90;99.90
24676;DHT22;12799;53.690;10.114;2022-07-24T01:14:05;12.80;99.90
24676;DHT22;12799;53.690;10.114;2022-07-24T01:16:09;12.80;99.90
24676;DHT22;12799;53.690;10.114;2022-07-24T01:18:11;12.80;99.90
24676;DHT22;12799;53.690;10.114;2022-07-24T01:20:13;12.70;99.90
24676;DHT22;12799;53.690;10.114;2022-07-24T01:22:17;12.70;99.90
24676;DHT22;12799;53.690;10.114;2022-07-24T01:24:20;12.70;99.90
24676;DHT22;12799;53.690;10.114;2022-07-24T01:26:22;12.70;99.90
24676;DHT22;12799;53.690;10.114;2022-07-24T01:28:25;12.70;99.90
24676;DHT22;12799;53.690;10.114;2022-07-24T01:30:27;12.70;99.90
24676;DHT22;12799;53.690;10.114;2022-07-24T01:32:29;12.60;99.90
24676;DHT22;12799;53.690;10.114;2022-07-24T01:34:31;12.60;99.90
24676;DHT22;12799;53.690;10.114;2022-07-24T01:36:33;12.60;99.90
24676;DHT22;12799;53.690;10.114;2022-07-24T01:38:36;12.60;99.90
24676;DHT22;12799;53.690;10.114;2022-07-24T01:40:38;12.50;99.90
24676;DHT22;12799;53.690;10.114;2022-07-24T01:42:40;12.60;99.90
24676;DHT22;12799;53.690;10.114;2022-07-24T01:44:42;12.60;99.90
24676;DHT22;12799;53.690;10.114;2022-07-24T01:46:44;12.50;99.90
24676;DHT22;12799;53.690;10.114;2022-07-24T01:48:46;12.50;99.90
24676;DHT22;12799;53.690;10.114;2022-07-24T01:50:48;12.50;99.90
24676;DHT22;12799;53.690;10.114;2022-07-24T01:52:50;12.50;99.90
24676;DHT22;12799;53.690;10.114;2022-07-24T01:54:55;12.40;99.90
24676;DHT22;12799;53.690;10.114;2022-07-24T01:56:57;12.40;99.90
24676;DHT22;12799;53.690;10.114;2022-07-24T01:58:59;12.40;99.90
24676;DHT22;12799;53.690;10.114;2022-07-24T02:01:01;12.40;99.90
24676;DHT22;12799;53.690;10.114;2022-07-24T02:03:03;12.40;99.90
24676;DHT22;12799;53.690;10.114;2022-07-24T02:05:05;12.40;99.90
24676;DHT22;12799;53.690;10.114;2022-07-24T02:07:07;12.30;99.90
24676;DHT22;12799;53.690;10.114;2022-07-24T02:09:09;12.30;99.90
24676;DHT22;12799;53.690;10.114;2022-07-24T02:11:13;12.30;99.90
24676;DHT22;12799;53.690;10.114;2022-07-24T02:13:15;12.30;99.90
24676;DHT22;12799;53.690;10.114;2022-07-24T02:15:17;12.30;99.90
24676;DHT22;12799;53.690;10.114;2022-07-24T02:17:19;12.30;99.90
24676;DHT22;12799;53.690;10.114;2022-07-24T02:19:21;12.30;99.90
24676;DHT22;12799;53.690;10.114;2022-07-24T02:21:23;12.20;99.90
24676;DHT22;12799;53.690;10.114;2022-07-24T02:23:25;12.20;99.90
24676;DHT22;12799;53.690;10.114;2022-07-24T02:25:27;12.20;99.90
24676;DHT22;12799;53.690;10.114;2022-07-24T02:27:31;12.20;99.90
24676;DHT22;12799;53.690;10.114;2022-07-24T02:29:33;12.20;99.90
24676;DHT22;12799;53.690;10.114;2022-07-24T02:31:35;12.20;99.90
24676;DHT22;12799;53.690;10.114;2022-07-24T02:33:37;12.10;99.90
24676;DHT22;12799;53.690;10.114;2022-07-24T02:35:39;12.10;99.90
24676;DHT22;12799;53.690;10.114;2022-07-24T02:37:43;12.10;99.90
24676;DHT22;12799;53.690;10.114;2022-07-24T02:39:45;12.10;99.90
24676;DHT22;12799;53.690;10.114;2022-07-24T02:41:47;12.10;99.90
24676;DHT22;12799;53.690;10.114;2022-07-24T02:43:50;12.10;99.90
24676;DHT22;12799;53.690;10.114;2022-07-24T02:45:52;12.10;99.90
24676;DHT22;12799;53.690;10.114;2022-07-24T02:47:56;12.00;99.90
24676;DHT22;12799;53.690;10.114;2022-07-24T02:49:58;12.00;99.90
24676;DHT22;12799;53.690;10.114;2022-07-24T02:52:00;12.00;99.90
24676;DHT22;12799;53.690;10.114;2022-07-24T02:54:02;12.00;99.90
24676;DHT22;12799;53.690;10.114;2022-07-24T02:56:05;12.00;99.90
24676;DHT22;12799;53.690;10.114;2022-07-24T02:58:07;12.00;99.90
24676;DHT22;12799;53.690;10.114;2022-07-24T03:00:13;12.00;99.90
24676;DHT22;12799;53.690;10.114;2022-07-24T03:02:16;12.00;99.90
24676;DHT22;12799;53.690;10.114;2022-07-24T03:04:18;11.90;99.90
24676;DHT22;12799;53.690;10.114;2022-07-24T03:06:20;11.90;99.90
24676;DHT22;12799;53.690;10.114;2022-07-24T03:08:22;11.90;99.90
24676;DHT22;12799;53.690;10.114;2022-07-24T03:10:24;11.80;99.90
24676;DHT22;12799;53.690;10.114;2022-07-24T03:12:26;11.80;99.90
24676;DHT22;12799;53.690;10.114;2022-07-24T03:14:28;11.90;99.90
24676;DHT22;12799;53.690;10.114;2022-07-24T03:16:31;11.80;99.90
24676;DHT22;12799;53.690;10.114;2022-07-24T03:18:33;11.80;99.90
24676;DHT22;12799;53.690;10.114;2022-07-24T03:20:35;11.80;99.90
24676;DHT22;12799;53.690;10.114;2022-07-24T03:22:37;11.80;99.90
24676;DHT22;12799;53.690;10.114;2022-07-24T03:24:39;11.80;99.90
24676;DHT22;12799;53.690;10.114;2022-07-24T03:26:41;11.80;99.90
24676;DHT22;12799;53.690;10.114;2022-07-24T03:28:43;11.80;99.90
24676;DHT22;12799;53.690;10.114;2022-07-24T03:30:45;11.70;99.90
24676;DHT22;12799;53.690;10.114;2022-07-24T03:32:49;11.70;99.90
24676;DHT22;12799;53.690;10.114;2022-07-24T03:34:51;11.70;99.90
24676;DHT22;12799;53.690;10.114;2022-07-24T03:36:53;11.70;99.90
24676;DHT22;12799;53.690;10.114;2022-07-24T03:38:55;11.70;99.90
24676;DHT22;12799;53.690;10.114;2022-07-24T03:40:57;11.70;99.90
24676;DHT22;12799;53.690;10.114;2022-07-24T03:42:59;11.70;99.90
24676;DHT22;12799;53.690;10.114;2022-07-24T03:45:03;11.70;99.90
24676;DHT22;12799;53.690;10.114;2022-07-24T03:47:05;11.70;99.90
24676;DHT22;12799;53.690;10.114;2022-07-24T03:49:14;11.70;99.90
24676;DHT22;12799;53.690;10.114;2022-07-24T03:51:16;11.70;99.90
24676;DHT22;12799;53.690;10.114;2022-07-24T03:53:18;11.70;99.90
24676;DHT22;12799;53.690;10.114;2022-07-24T03:55:20;11.70;99.90
24676;DHT22;12799;53.690;10.114;2022-07-24T03:57:23;11.70;99.90
24676;DHT22;12799;53.690;10.114;2022-07-24T03:59:25;11.60;99.90
24676;DHT22;12799;53.690;10.114;2022-07-24T04:01:27;11.70;99.90
24676;DHT22;12799;53.690;10.114;2022-07-24T04:03:29;11.70;99.90
24676;DHT22;12799;53.690;10.114;2022-07-24T04:05:32;11.70;99.90
24676;DHT22;12799;53.690;10.114;2022-07-24T04:07:34;11.70;99.90
24676;DHT22;12799;53.690;10.114;2022-07-24T04:09:37;11.70;99.90
24676;DHT22;12799;53.690;10.114;2022-07-24T04:11:40;11.70;99.90
24676;DHT22;12799;53.690;10.114;2022-07-24T04:13:48;11.60;99.90
24676;DHT22;12799;53.690;10.114;2022-07-24T04:16:01;11.60;99.90
24676;DHT22;12799;53.690;10.114;2022-07-24T04:18:07;11.70;99.90
24676;DHT22;12799;53.690;10.114;2022-07-24T04:20:19;11.70;99.90
24676;DHT22;12799;53.690;10.114;2022-07-24T04:22:25;11.70;99.90
24676;DHT22;12799;53.690;10.114;2022-07-24T04:24:33;11.70;99.90
24676;DHT22;12799;53.690;10.114;2022-07-24T04:26:36;11.70;99.90
24676;DHT22;12799;53.690;10.114;2022-07-24T04:28:41;11.70;99.90
24676;DHT22;12799;53.690;10.114;2022-07-24T04:31:01;11.80;99.90
24676;DHT22;12799;53.690;10.114;2022-07-24T04:33:06;11.70;99.90
24676;DHT22;12799;53.690;10.114;2022-07-24T04:35:11;11.70;99.90
24676;DHT22;12799;53.690;10.114;2022-07-24T04:37:13;11.70;99.90
24676;DHT22;12799;53.690;10.114;2022-07-24T04:39:16;11.80;99.90
24676;DHT22;12799;53.690;10.114;2022-07-24T04:41:33;11.80;99.90
24676;DHT22;12799;53.690;10.114;2022-07-24T04:43:37;11.70;99.90
24676;DHT22;12799;53.690;10.114;2022-07-24T04:47:55;11.80;99.90
24676;DHT22;12799;53.690;10.114;2022-07-24T04:49:57;11.80;99.90
24676;DHT22;12799;53.690;10.114;2022-07-24T04:51:59;11.90;99.90
24676;DHT22;12799;53.690;10.114;2022-07-24T04:54:02;11.90;99.90
24676;DHT22;12799;53.690;10.114;2022-07-24T04:56:06;11.90;99.90
24676;DHT22;12799;53.690;10.114;2022-07-24T04:58:08;11.90;99.90
24676;DHT22;12799;53.690;10.114;2022-07-24T05:00:11;11.90;99.90
24676;DHT22;12799;53.690;10.114;2022-07-24T05:02:14;11.90;99.90
24676;DHT22;12799;53.690;10.114;2022-07-24T05:04:16;11.90;99.90
24676;DHT22;12799;53.690;10.114;2022-07-24T05:06:18;12.00;99.90
24676;DHT22;12799;53.690;10.114;2022-07-24T05:08:20;12.00;99.90
24676;DHT22;12799;53.690;10.114;2022-07-24T05:10:22;12.00;99.90
24676;DHT22;12799;53.690;10.114;2022-07-24T05:12:25;12.10;99.90
24676;DHT22;12799;53.690;10.114;2022-07-24T05:14:28;12.10;99.90
24676;DHT22;12799;53.690;10.114;2022-07-24T05:16:30;12.10;99.90
24676;DHT22;12799;53.690;10.114;2022-07-24T05:18:32;12.10;99.90
24676;DHT22;12799;53.690;10.114;2022-07-24T05:20:34;12.20;99.90
24676;DHT22;12799;53.690;10.114;2022-07-24T05:22:36;12.20;99.90
24676;DHT22;12799;53.690;10.114;2022-07-24T05:24:38;12.20;99.90
24676;DHT22;12799;53.690;10.114;2022-07-24T05:26:40;12.30;99.90
24676;DHT22;12799;53.690;10.114;2022-07-24T05:28:44;12.30;99.90
24676;DHT22;12799;53.690;10.114;2022-07-24T05:30:45;12.40;99.90
24676;DHT22;12799;53.690;10.114;2022-07-24T05:32:47;12.40;99.90
24676;DHT22;12799;53.690;10.114;2022-07-24T05:34:49;12.50;99.90
24676;DHT22;12799;53.690;10.114;2022-07-24T05:36:51;12.50;99.90
24676;DHT22;12799;53.690;10.114;2022-07-24T05:38:54;12.60;99.90
24676;DHT22;12799;53.690;10.114;2022-07-24T05:40:56;12.70;99.90
24676;DHT22;12799;53.690;10.114;2022-07-24T05:42:58;12.70;99.90
24676;DHT22;12799;53.690;10.114;2022-07-24T05:45:02;12.80;99.90
24676;DHT22;12799;53.690;10.114;2022-07-24T05:47:04;12.90;99.90
24676;DHT22;12799;53.690;10.114;2022-07-24T05:49:06;13.00;99.90
24676;DHT22;12799;53.690;10.114;2022-07-24T05:51:08;13.00;99.90
24676;DHT22;12799;53.690;10.114;2022-07-24T05:53:10;13.20;99.90
24676;DHT22;12799;53.690;10.114;2022-07-24T05:55:13;13.20;99.90
24676;DHT22;12799;53.690;10.114;2022-07-24T05:57:15;13.40;99.90
24676;DHT22;12799;53.690;10.114;2022-07-24T05:59:17;13.30;99.90
24676;DHT22;12799;53.690;10.114;2022-07-24T06:01:21;13.50;99.90
24676;DHT22;12799;53.690;10.114;2022-07-24T06:03:23;13.50;99.90
24676;DHT22;12799;53.690;10.114;2022-07-24T06:05:25;13.70;99.90
24676;DHT22;12799;53.690;10.114;2022-07-24T06:07:27;13.70;99.90
24676;DHT22;12799;53.690;10.114;2022-07-24T06:09:29;13.80;99.90
24676;DHT22;12799;53.690;10.114;2022-07-24T06:11:31;13.70;99.90
24676;DHT22;12799;53.690;10.114;2022-07-24T06:13:35;13.90;99.90
24676;DHT22;12799;53.690;10.114;2022-07-24T06:15:37;13.90;99.90
24676;DHT22;12799;53.690;10.114;2022-07-24T06:17:52;14.10;99.90
24676;DHT22;12799;53.690;10.114;2022-07-24T06:20:23;14.20;99.90
24676;DHT22;12799;53.690;10.114;2022-07-24T06:25:58;14.40;99.90
24676;DHT22;12799;53.690;10.114;2022-07-24T06:28:00;14.40;99.90
24676;DHT22;12799;53.690;10.114;2022-07-24T06:30:03;14.50;99.90
24676;DHT22;12799;53.690;10.114;2022-07-24T06:35:24;14.60;99.90
24676;DHT22;12799;53.690;10.114;2022-07-24T06:37:26;14.70;99.90
24676;DHT22;12799;53.690;10.114;2022-07-24T06:39:50;14.90;99.90
24676;DHT22;12799;53.690;10.114;2022-07-24T06:42:02;15.10;99.90
24676;DHT22;12799;53.690;10.114;2022-07-24T06:44:07;15.20;99.90
24676;DHT22;12799;53.690;10.114;2022-07-24T06:46:23;15.40;99.90
24676;DHT22;12799;53.690;10.114;2022-07-24T06:49:15;15.40;99.90
24676;DHT22;12799;53.690;10.114;2022-07-24T06:54:52;15.70;99.90
24676;DHT22;12799;53.690;10.114;2022-07-24T06:59:40;16.00;99.90
24676;DHT22;12799;53.690;10.114;2022-07-24T07:01:42;16.10;99.90
24676;DHT22;12799;53.690;10.114;2022-07-24T07:03:45;16.30;99.90
24676;DHT22;12799;53.690;10.114;2022-07-24T07:05:54;16.40;99.90
24676;DHT22;12799;53.690;10.114;2022-07-24T07:08:01;16.60;99.90
24676;DHT22;12799;53.690;10.114;2022-07-24T07:10:08;16.70;99.90
24676;DHT22;12799;53.690;10.114;2022-07-24T07:12:21;16.90;99.90
24676;DHT22;12799;53.690;10.114;2022-07-24T12:05:49;32.40;99.90
24676;DHT22;12799;53.690;10.114;2022-07-24T12:07:51;32.50;99.90
24676;DHT22;12799;53.690;10.114;2022-07-24T12:09:55;32.30;99.90
24676;DHT22;12799;53.690;10.114;2022-07-24T12:11:57;32.20;99.90
24676;DHT22;12799;53.690;10.114;2022-07-24T12:13:59;32.40;99.90
24676;DHT22;12799;53.690;10.114;2022-07-24T12:16:02;32.40;99.90
24676;DHT22;12799;53.690;10.114;2022-07-24T12:18:05;32.40;99.90
24676;DHT22;12799;53.690;10.114;2022-07-24T12:20:08;32.50;99.90
24676;DHT22;12799;53.690;10.114;2022-07-24T12:22:12;32.30;99.90
24676;DHT22;12799;53.690;10.114;2022-07-24T12:24:14;32.20;99.90
24676;DHT22;12799;53.690;10.114;2022-07-24T12:26:16;32.20;99.90
24676;DHT22;12799;53.690;10.114;2022-07-24T12:28:19;32.10;99.90
24676;DHT22;12799;53.690;10.114;2022-07-24T12:30:23;32.00;99.90
24676;DHT22;12799;53.690;10.114;2022-07-24T12:32:27;32.00;99.90
24676;DHT22;12799;53.690;10.114;2022-07-24T12:34:40;31.80;99.90
24676;DHT22;12799;53.690;10.114;2022-07-24T12:36:42;31.70;99.90
24676;DHT22;12799;53.690;10.114;2022-07-24T12:38:53;31.50;99.90
24676;DHT22;12799;53.690;10.114;2022-07-24T12:41:05;31.20;99.90
24676;DHT22;12799;53.690;10.114;2022-07-24T12:43:09;31.30;99.90
24676;DHT22;12799;53.690;10.114;2022-07-24T12:45:13;31.40;99.90
24676;DHT22;12799;53.690;10.114;2022-07-24T12:47:15;31.30;99.90
24676;DHT22;12799;53.690;10.114;2022-07-24T12:49:19;31.40;99.90
24676;DHT22;12799;53.690;10.114;2022-07-24T12:51:21;31.40;99.90
24676;DHT22;12799;53.690;10.114;2022-07-24T12:53:26;31.40;99.90
24676;DHT22;12799;53.690;10.114;2022-07-24T12:55:29;31.50;99.90
24676;DHT22;12799;53.690;10.114;2022-07-24T12:57:31;31.20;99.90
24676;DHT22;12799;53.690;10.114;2022-07-24T12:59:40;31.30;99.90
24676;DHT22;12799;53.690;10.114;2022-07-24T13:01:47;31.40;99.90
24676;DHT22;12799;53.690;10.114;2022-07-24T13:03:54;31.40;99.90
24676;DHT22;12799;53.690;10.114;2022-07-24T13:05:56;31.40;99.90
24676;DHT22;12799;53.690;10.114;2022-07-24T13:07:58;31.50;99.90
24676;DHT22;12799;53.690;10.114;2022-07-24T13:10:00;31.60;99.90
24676;DHT22;12799;53.690;10.114;2022-07-24T13:12:06;31.80;99.90
24676;DHT22;12799;53.690;10.114;2022-07-24T13:14:10;31.70;99.90
24676;DHT22;12799;53.690;10.114;2022-07-24T13:16:12;31.40;99.90
24676;DHT22;12799;53.690;10.114;2022-07-24T13:18:14;31.40;99.90
24676;DHT22;12799;53.690;10.114;2022-07-24T13:20:16;31.30;99.90
24676;DHT22;12799;53.690;10.114;2022-07-24T13:22:19;31.40;99.90
24676;DHT22;12799;53.690;10.114;2022-07-24T13:24:21;31.10;99.90
24676;DHT22;12799;53.690;10.114;2022-07-24T13:26:24;31.10;99.90
24676;DHT22;12799;53.690;10.114;2022-07-24T13:28:27;31.20;99.90
24676;DHT22;12799;53.690;10.114;2022-07-24T13:30:29;31.20;99.90
24676;DHT22;12799;53.690;10.114;2022-07-24T13:32:31;31.20;99.90
24676;DHT22;12799;53.690;10.114;2022-07-24T13:34:33;31.30;99.90
24676;DHT22;12799;53.690;10.114;2022-07-24T13:36:36;31.10;99.90
24676;DHT22;12799;53.690;10.114;2022-07-24T13:38:39;31.00;99.90
24676;DHT22;12799;53.690;10.114;2022-07-24T13:40:41;30.80;99.90
24676;DHT22;12799;53.690;10.114;2022-07-24T13:42:43;30.70;99.90
24676;DHT22;12799;53.690;10.114;2022-07-24T13:44:46;30.90;99.90
24676;DHT22;12799;53.690;10.114;2022-07-24T13:46:48;31.00;99.90
24676;DHT22;12799;53.690;10.114;2022-07-24T13:48:50;31.10;99.90
24676;DHT22;12799;53.690;10.114;2022-07-24T13:50:53;31.30;99.90
24676;DHT22;12799;53.690;10.114;2022-07-24T13:52:55;31.40;99.90
24676;DHT22;12799;53.690;10.114;2022-07-24T13:54:57;31.30;99.90
24676;DHT22;12799;53.690;10.114;2022-07-24T13:57:00;31.40;99.90
24676;DHT22;12799;53.690;10.114;2022-07-24T13:59:03;31.40;99.90
24676;DHT22;12799;53.690;10.114;2022-07-24T14:01:07;31.60;99.90
24676;DHT22;12799;53.690;10.114;2022-07-24T14:03:09;31.40;99.90
24676;DHT22;12799;53.690;10.114;2022-07-24T14:05:11;31.20;99.90
24676;DHT22;12799;53.690;10.114;2022-07-24T14:07:13;31.40;99.90
24676;DHT22;12799;53.690;10.114;2022-07-24T14:09:16;31.30;99.90
24676;DHT22;12799;53.690;10.114;2022-07-24T14:11:18;31.30;99.90
24676;DHT22;12799;53.690;10.114;2022-07-24T14:13:20;31.40;99.90
24676;DHT22;12799;53.690;10.114;2022-07-24T14:15:22;31.30;99.90
24676;DHT22;12799;53.690;10.114;2022-07-24T14:17:26;31.40;99.90
24676;DHT22;12799;53.690;10.114;2022-07-24T14:19:28;31.20;99.90
24676;DHT22;12799;53.690;10.114;2022-07-24T14:21:31;30.90;99.90
24676;DHT22;12799;53.690;10.114;2022-07-24T14:23:34;31.00;99.90
24676;DHT22;12799;53.690;10.114;2022-07-24T14:25:36;31.10;99.90
24676;DHT22;12799;53.690;10.114;2022-07-24T14:27:38;31.10;99.90
24676;DHT22;12799;53.690;10.114;2022-07-24T14:29:40;31.20;99.90
24676;DHT22;12799;53.690;10.114;2022-07-24T14:31:42;31.30;99.90
24676;DHT22;12799;53.690;10.114;2022-07-24T14:33:46;31.50;99.90
24676;DHT22;12799;53.690;10.114;2022-07-24T14:35:48;31.50;99.90
24676;DHT22;12799;53.690;10.114;2022-07-24T14:37:50;31.50;99.90
24676;DHT22;12799;53.690;10.114;2022-07-24T14:39:52;31.30;99.90
24676;DHT22;12799;53.690;10.114;2022-07-24T14:41:55;31.20;99.90
24676;DHT22;12799;53.690;10.114;2022-07-24T14:43:57;31.10;99.90
24676;DHT22;12799;53.690;10.114;2022-07-24T14:45:59;31.20;99.90
24676;DHT22;12799;53.690;10.114;2022-07-24T14:48:01;31.40;99.90
24676;DHT22;12799;53.690;10.114;2022-07-24T14:50:05;31.00;99.90
24676;DHT22;12799;53.690;10.114;2022-07-24T14:52:08;31.00;99.90
24676;DHT22;12799;53.690;10.114;2022-07-24T14:54:16;31.10;99.90
24676;DHT22;12799;53.690;10.114;2022-07-24T14:56:18;31.10;99.90
24676;DHT22;12799;53.690;10.114;2022-07-24T14:58:20;31.10;99.90
24676;DHT22;12799;53.690;10.114;2022-07-24T15:00:22;31.10;99.90
24676;DHT22;12799;53.690;10.114;2022-07-24T15:02:24;31.00;99.90
24676;DHT22;12799;53.690;10.114;2022-07-24T15:04:26;31.20;99.90
24676;DHT22;12799;53.690;10.114;2022-07-24T15:06:29;31.20;99.90
24676;DHT22;12799;53.690;10.114;2022-07-24T15:08:32;31.40;99.90
24676;DHT22;12799;53.690;10.114;2022-07-24T15:10:34;31.40;99.90
24676;DHT22;12799;53.690;10.114;2022-07-24T15:12:36;31.50;99.90
24676;DHT22;12799;53.690;10.114;2022-07-24T15:14:38;31.30;99.90
24676;DHT22;12799;53.690;10.114;2022-07-24T15:16:40;31.50;99.90
24676;DHT22;12799;53.690;10.114;2022-07-24T15:18:42;31.50;99.90
24676;DHT22;12799;53.690;10.114;2022-07-24T15:20:44;31.60;99.90
24676;DHT22;12799;53.690;10.114;2022-07-24T15:22:47;31.80;99.90
24676;DHT22;12799;53.690;10.114;2022-07-24T15:24:49;31.90;99.90
24676;DHT22;12799;53.690;10.114;2022-07-24T15:26:51;31.90;99.90
24676;DHT22;12799;53.690;10.114;2022-07-24T15:28:53;31.70;99.90
24676;DHT22;12799;53.690;10.114;2022-07-24T15:30:55;31.60;99.90
24676;DHT22;12799;53.690;10.114;2022-07-24T15:32:58;31.60;99.90
24676;DHT22;12799;53.690;10.114;2022-07-24T15:35:01;31.60;99.90
24676;DHT22;12799;53.690;10.114;2022-07-24T15:37:03;31.60;99.90
24676;DHT22;12799;53.690;10.114;2022-07-24T15:39:09;31.40;99.90
24676;DHT22;12799;53.690;10.114;2022-07-24T15:41:11;31.10;99.90
24676;DHT22;12799;53.690;10.114;2022-07-24T15:43:13;31.30;99.90
24676;DHT22;12799;53.690;10.114;2022-07-24T15:45:15;31.20;99.90
24676;DHT22;12799;53.690;10.114;2022-07-24T15:47:17;31.10;99.90
24676;DHT22;12799;53.690;10.114;2022-07-24T15:49:19;31.10;99.90
24676;DHT22;12799;53.690;10.114;2022-07-24T15:51:21;31.20;99.90
24676;DHT22;12799;53.690;10.114;2022-07-24T15:53:23;31.40;99.90
24676;DHT22;12799;53.690;10.114;2022-07-24T15:55:26;31.40;99.90
24676;DHT22;12799;53.690;10.114;2022-07-24T15:57:29;31.40;99.90
24676;DHT22;12799;53.690;10.114;2022-07-24T15:59:31;31.40;99.90
24676;DHT22;12799;53.690;10.114;2022-07-24T16:01:33;31.40;99.90
24676;DHT22;12799;53.690;10.114;2022-07-24T16:03:35;31.40;99.90
24676;DHT22;12799;53.690;10.114;2022-07-24T16:05:37;31.30;99.90
24676;DHT22;12799;53.690;10.114;2022-07-24T16:07:39;31.20;99.90
24676;DHT22;12799;53.690;10.114;2022-07-24T16:09:41;31.10;99.90
24676;DHT22;12799;53.690;10.114;2022-07-24T16:11:45;31.00;99.90
24676;DHT22;12799;53.690;10.114;2022-07-24T16:13:47;31.00;99.90
24676;DHT22;12799;53.690;10.114;2022-07-24T16:15:49;30.90;99.90
24676;DHT22;12799;53.690;10.114;2022-07-24T16:17:51;30.80;99.90
24676;DHT22;12799;53.690;10.114;2022-07-24T16:19:53;30.80;99.90
24676;DHT22;12799;53.690;10.114;2022-07-24T16:21:55;30.80;99.90
24676;DHT22;12799;53.690;10.114;2022-07-24T16:23:59;30.90;99.90
24676;DHT22;12799;53.690;10.114;2022-07-24T16:26:01;30.80;99.90
24676;DHT22;12799;53.690;10.114;2022-07-24T16:28:08;30.80;99.90
24676;DHT22;12799;53.690;10.114;2022-07-24T16:30:11;30.70;99.90
24676;DHT22;12799;53.690;10.114;2022-07-24T16:32:13;30.60;99.90
24676;DHT22;12799;53.690;10.114;2022-07-24T16:34:15;30.60;99.90
24676;DHT22;12799;53.690;10.114;2022-07-24T16:36:17;30.60;99.90
24676;DHT22;12799;53.690;10.114;2022-07-24T16:38:19;30.60;99.90
24676;DHT22;12799;53.690;10.114;2022-07-24T16:40:21;30.60;99.90
24676;DHT22;12799;53.690;10.114;2022-07-24T16:42:23;30.50;99.90
24676;DHT22;12799;53.690;10.114;2022-07-24T16:44:27;30.50;99.90
24676;DHT22;12799;53.690;10.114;2022-07-24T16:46:29;30.40;99.90
24676;DHT22;12799;53.690;10.114;2022-07-24T16:48:31;30.40;99.90
24676;DHT22;12799;53.690;10.114;2022-07-24T16:50:33;30.40;99.90
24676;DHT22;12799;53.690;10.114;2022-07-24T16:52:35;30.40;99.90
24676;DHT22;12799;53.690;10.114;2022-07-24T16:54:37;30.30;99.90
24676;DHT22;12799;53.690;10.114;2022-07-24T16:56:39;30.20;99.90
24676;DHT22;12799;53.690;10.114;2022-07-24T16:58:41;30.30;99.90
24676;DHT22;12799;53.690;10.114;2022-07-24T17:00:45;30.30;99.90
24676;DHT22;12799;53.690;10.114;2022-07-24T17:02:47;30.20;99.90
24676;DHT22;12799;53.690;10.114;2022-07-24T17:04:49;30.20;99.90
24676;DHT22;12799;53.690;10.114;2022-07-24T17:06:52;30.10;99.90
24676;DHT22;12799;53.690;10.114;2022-07-24T17:08:54;30.00;99.90
24676;DHT22;12799;53.690;10.114;2022-07-24T17:10:56;29.90;99.90
24676;DHT22;12799;53.690;10.114;2022-07-24T17:12:58;29.90;99.90
24676;DHT22;12799;53.690;10.114;2022-07-24T17:15:00;29.70;99.90
24676;DHT22;12799;53.690;10.114;2022-07-24T17:17:04;29.70;99.90
24676;DHT22;12799;53.690;10.114;2022-07-24T17:19:06;29.70;99.90
24676;DHT22;12799;53.690;10.114;2022-07-24T17:21:08;29.60;99.90
24676;DHT22;12799;53.690;10.114;2022-07-24T17:23:11;29.60;99.90
24676;DHT22;12799;53.690;10.114;2022-07-24T17:25:13;29.60;99.90
24676;DHT22;12799;53.690;10.114;2022-07-24T17:27:15;29.50;99.90
24676;DHT22;12799;53.690;10.114;2022-07-24T18:45:34;27.30;99.90
24676;DHT22;12799;53.690;10.114;2022-07-24T18:47:36;27.20;99.90
24676;DHT22;12799;53.690;10.114;2022-07-24T18:49:38;27.20;99.90
24676;DHT22;12799;53.690;10.114;2022-07-24T18:51:40;27.20;99.90
24676;DHT22;12799;53.690;10.114;2022-07-24T18:53:42;27.20;99.90
24676;DHT22;12799;53.690;10.114;2022-07-24T18:55:44;27.20;99.90
24676;DHT22;12799;53.690;10.114;2022-07-24T18:57:46;27.00;99.90
24676;DHT22;12799;53.690;10.114;2022-07-24T18:59:48;27.00;99.90
24676;DHT22;12799;53.690;10.114;2022-07-24T19:01:51;27.00;99.90
24676;DHT22;12799;53.690;10.114;2022-07-24T19:03:53;27.00;99.90
24676;DHT22;12799;53.690;10.114;2022-07-24T19:05:55;27.00;99.90
24676;DHT22;12799;53.690;10.114;2022-07-24T19:07:57;27.00;99.90